Weather at Vancouver Harbour Water Aerodrome

Public forecast

Using degrees Celsius for public forecast. Weather courtesy of forecast.io.

Closest aviation weather report (METAR) to Vancouver Harbour Water Aerodrome

Closest report is Vancouver International Airport, 6.4 nm (11.9 km) SSW. Retrieved 2022/05/24 01:00 UTC (1 hour ago):

CYVR 240100Z 22008KT 30SM FEW040 FEW100 16/10 A3015 RMK CU2AC1 AC TR TCU EMBEDDED SLP211

Closest aviation forecast (TAF) to Vancouver Harbour Water Aerodrome

Closest forecast is Vancouver International Airport, 6.4 nm (11.9 km) SSW. Retrieved 2022-05-24 00:43 UTC (1 hour ago):

TAF CYVR 232340Z 2400/2506 24010KT P6SM SCT050 SCT080 BECMG 2409/2411 10008KT FM241200 10010KT P6SM FEW030 BKN180 FM241800 12010KT P6SM FEW020 SCT040 BKN100 FM250300 12006KT P6SM -RA SCT020 BKN050 BKN080 RMK NXT FCST BY 240300Z